Latest Weather Observations for Badgerys Creek

IDN60801

Issued at 11:32 am EDT Wednesday 10 February 2016 (issued every 30 minutes, with the page automatically refreshed every 10 minutes)

About weather observations | Map of weather stations | Latest weather observations for NSW | Other Formats
Station Details ID: 067108 Name: BADGERYS CREEK AWS Lat: -33.90 Lon: 150.73 Height: 81.2 m
Data from the previous 72 hours. | See also: Recent months at Badgerys Creek
Date/Time
EDT
Temp
°C
App
Temp
°C
Dew
Point
Rel
Hum
%
Delta-T
°C
Wind Press
QNH
hPa
Press
MSL
hPa
Rain
since 9 am
mm
Dir
 
Spd
km/h
Gust
km/h
Spd
kts
Gust
kts
10/11:30am 26.6 27.5 18.5 61 5.2 N 11 17 6 9 1015.6 1015.3 0.0
10/11:00am 25.4 26.6 17.3 61 5.1 NNE 7 15 4 8 1016.1 1015.8 0.0
10/10:30am 24.4 25.0 17.6 66 4.3 N 11 17 6 9 1016.4 1016.1 0.0
10/10:00am 24.0 25.4 18.6 72 3.4 NNE 9 15 5 8 1016.6 1016.3 0.0
10/09:30am 22.4 24.3 18.6 79 2.4 N 6 11 3 6 1016.7 1016.4 0.0
10/09:00am 20.6 23.2 18.4 87 1.4 NW 2 6 1 3 1016.8 1016.5 0.0
10/08:30am 18.9 22.0 18.6 98 0.2 CALM 0 0 0 0 1016.8 1016.5 0.0
10/08:00am 17.9 19.9 17.9 100 0.0 WSW 4 6 2 3 1016.8 1016.5 0.0
10/07:30am 16.5 18.7 16.5 100 0.0 CALM 0 0 0 0 1016.7 1016.4 0.0
10/07:00am 15.6 17.4 15.6 100 0.0 CALM 0 0 0 0 1016.6 1016.3 0.0
10/06:30am 15.8 17.7 15.8 100 0.0 CALM 0 0 0 0 1016.4 1016.1 0.0
10/06:00am 16.4 18.6 16.4 100 0.0 CALM 0 0 0 0 1016.2 1015.9 0.0
10/05:30am 16.1 18.1 16.1 100 0.0 CALM 0 0 0 0 1016.0 1015.7 0.0
10/05:00am 16.2 17.5 16.2 100 0.0 WSW 4 6 2 3 1016.0 1015.7 0.0
10/04:30am 16.7 17.8 16.7 100 0.0 WSW 6 6 3 3 1016.1 1015.8 0.0
10/04:00am 16.6 18.0 16.4 99 0.1 WSW 4 6 2 3 1016.2 1015.9 0.0
10/03:30am 17.1 19.3 16.6 97 0.3 CALM 0 0 0 0 1016.4 1016.1 0.0
10/03:00am 17.6 19.7 17.3 98 0.2 W 2 4 1 2 1016.8 1016.5 0.0
10/02:30am 17.7 19.0 17.2 97 0.3 W 6 6 3 3 1017.1 1016.8 0.0
10/02:00am 18.0 19.4 17.4 96 0.4 W 6 6 3 3 1017.6 1017.2 0.0
10/01:30am 18.1 19.4 17.0 93 0.7 W 6 6 3 3 1017.7 1017.3 0.0
10/01:00am 18.5 19.8 17.2 92 0.8 W 6 7 3 4 1018.2 1017.8 0.0
10/12:30am 18.7 20.3 17.9 95 0.5 SSE 6 7 3 4 1018.6 1018.2 0.0
10/12:00am 18.2 20.0 17.4 95 0.5 ESE 4 6 2 3 1018.8 1018.4 0.0
 
Date/Time
EDT
Temp
°C
App
Temp
°C
Dew
Point
Rel
Hum
%
Delta-T
°C
Wind Press
QNH
hPa
Press
MSL
hPa
Rain
since 9 am
mm
Dir
 
Spd
km/h
Gust
km/h
Spd
kts
Gust
kts
09/11:30pm 18.9 20.8 17.6 92 0.8 ESE 4 4 2 2 1019.0 1018.6 0.0
09/11:00pm 19.5 21.6 18.0 91 0.9 ESE 4 4 2 2 1019.4 1019.0 0.0
09/10:30pm 19.3 21.1 17.4 89 1.2 ESE 4 4 2 2 1019.6 1019.2 0.0
09/10:00pm 19.3 21.2 16.7 85 1.6 ESE 2 4 1 2 1019.7 1019.3 0.0
09/09:30pm 20.0 21.4 16.4 80 2.2 ESE 4 6 2 3 1019.5 1019.1 0.0
09/09:00pm 20.5 21.8 16.1 76 2.6 ESE 4 6 2 3 1019.5 1019.1 0.0
09/08:30pm 21.0 21.9 16.0 73 3.0 ESE 6 9 3 5 1019.2 1018.8 0.0
09/08:00pm 21.5 22.4 16.5 73 3.0 ESE 7 9 4 5 1019.1 1018.7 0.0
09/07:30pm 22.6 22.2 16.2 67 3.9 ESE 13 19 7 10 1018.8 1018.4 0.0
09/07:00pm 24.0 23.6 16.3 62 4.7 E 13 20 7 11 1018.5 1018.1 0.0
09/06:30pm 24.9 24.7 16.6 60 5.1 ESE 13 20 7 11 1018.2 1017.8 0.0
09/06:00pm 25.7 25.7 17.1 59 5.4 ESE 13 19 7 10 1018.0 1017.6 0.0
09/05:30pm 26.1 25.9 16.6 55 5.9 E 13 17 7 9 1018.1 1017.7 0.0
09/05:00pm 26.4 26.2 16.6 55 6.1 E 13 20 7 11 1018.1 1017.7 0.0
09/04:30pm 27.0 27.5 17.5 56 6.0 ESE 11 17 6 9 1018.3 1017.9 0.0
09/04:00pm 27.2 27.0 18.5 59 5.6 E 17 24 9 13 1018.6 1018.2 0.0
09/03:30pm 27.4 27.2 17.6 55 6.2 E 15 22 8 12 1018.8 1018.4 0.0
09/03:00pm 27.0 27.3 18.0 58 5.7 E 13 19 7 10 1019.2 1018.8 0.0
09/02:30pm 26.5 27.1 17.6 58 5.6 ESE 11 17 6 9 1019.5 1019.1 0.0
09/02:00pm 27.5 27.8 17.9 55 6.1 ESE 13 20 7 11 1019.8 1019.4 0.0
09/01:30pm 27.1 27.9 18.1 58 5.7 E 11 17 6 9 1020.1 1019.7 0.0
09/01:00pm 25.6 27.1 17.5 61 5.1 S 6 9 3 5 1020.3 1019.9 0.0
09/12:30pm 25.9 27.6 18.6 64 4.7 SW 7 11 4 6 1020.6 1020.2 0.0
09/12:00pm 25.9 27.6 18.1 62 4.9 SSE 6 11 3 6 1020.9 1020.5 0.0
09/11:30am 25.2 26.2 17.7 63 4.7 SSE 9 17 5 9 1021.1 1020.7 0.0
09/11:00am 25.2 26.4 19.1 69 3.9 S 11 19 6 10 1021.2 1020.8 0.0
09/10:30am 23.9 25.1 19.0 74 3.1 S 11 19 6 10 1021.4 1021.0 0.0
09/10:00am 23.0 24.2 19.0 78 2.5 S 11 17 6 9 1021.5 1021.1 0.0
09/09:30am 23.3 24.8 19.0 77 2.7 S 9 17 5 9 1021.4 1021.0 0.0
09/09:00am 22.6 23.8 19.0 80 2.3 SW 11 17 6 9 1021.3 1020.9 0.0
09/08:30am 21.2 23.0 18.4 84 1.8 WSW 6 7 3 4 1021.3 1020.9 0.0
09/08:00am 20.3 23.2 19.0 92 0.8 SW 2 4 1 2 1021.0 1020.6 0.0
09/07:30am 18.5 19.9 17.3 93 0.7 SW 6 7 3 4 1020.5 1020.1 0.0
09/07:00am 17.9 19.1 17.4 97 0.3 WSW 7 9 4 5 1020.2 1019.8 0.0
09/06:30am 17.6 19.0 17.3 98 0.2 SW 6 6 3 3 1019.9 1019.5 0.0
09/06:00am 17.1 17.7 16.9 99 0.1 SW 9 11 5 6 1019.4 1019.0 0.0
09/05:30am 17.1 18.0 16.5 96 0.4 WSW 7 9 4 5 1019.2 1018.8 0.0
09/05:00am 18.2 20.6 17.0 93 0.7 CALM 0 4 0 2 1019.2 1018.8 0.0
09/04:30am 18.4 19.9 17.6 95 0.5 SSW 6 7 3 4 1019.0 1018.6 0.0
09/04:00am 18.4 19.8 17.9 97 0.3 WSW 7 9 4 5 1019.0 1018.6 0.0
09/03:30am 18.3 20.0 18.1 99 0.1 SW 6 9 3 5 1019.2 1018.8 0.0
09/03:00am 18.8 20.1 18.5 98 0.2 WSW 9 9 5 5 1019.2 1018.8 0.0
09/02:30am 18.9 20.3 18.7 99 0.1 WSW 9 11 5 6 1019.6 1019.2 0.0
09/02:00am 18.6 19.6 18.6 100 0.0 WSW 11 11 6 6 1019.7 1019.3 0.0
09/01:30am 18.1 19.6 18.1 100 0.0 SW 7 9 4 5 1019.8 1019.4 0.0
09/01:00am 18.4 20.0 18.2 99 0.1 WSW 7 9 4 5 1020.0 1019.6 0.0
09/12:30am 18.4 19.9 18.1 98 0.2 ESE 7 9 4 5 1020.1 1019.7 0.0
09/12:00am 18.8 20.4 18.3 97 0.3 ESE 7 9 4 5 1020.1 1019.7 0.0
 
Date/Time
EDT
Temp
°C
App
Temp
°C
Dew
Point
Rel
Hum
%
Delta-T
°C
Wind Press
QNH
hPa
Press
MSL
hPa
Rain
since 9 am
mm
Dir
 
Spd
km/h
Gust
km/h
Spd
kts
Gust
kts
08/11:30pm 19.1 21.0 18.6 97 0.3 ESE 6 7 3 4 1020.1 1019.7 0.0
08/11:00pm 19.0 20.6 18.3 96 0.4 ESE 7 7 4 4 1020.1 1019.7 0.0
08/10:30pm 19.9 22.2 18.6 92 0.8 ESE 4 4 2 2 1020.1 1019.7 0.0
08/10:00pm 20.2 22.0 18.3 89 1.2 ESE 6 7 3 4 1020.0 1019.6 0.0
08/09:30pm 20.7 22.4 18.1 85 1.6 ESE 6 9 3 5 1019.5 1019.1 0.0
08/09:00pm 21.4 22.9 17.6 79 2.3 ESE 6 9 3 5 1019.0 1018.6 0.0
08/08:30pm 22.1 22.6 17.5 75 2.8 ESE 11 17 6 9 1018.5 1018.1 0.0
08/08:00pm 23.1 23.7 16.9 68 3.8 E 9 13 5 7 1018.4 1018.0 0.0
08/07:30pm 24.5 24.7 16.7 61 4.8 ESE 11 19 6 10 1017.9 1017.5 0.0
08/07:00pm 25.8 26.1 16.9 58 5.5 E 11 19 6 10 1017.5 1017.1 0.0
08/06:30pm 26.7 26.3 16.3 53 6.4 ESE 13 19 7 10 1017.0 1016.7 0.0
08/06:00pm 27.3 26.3 16.6 52 6.7 E 17 24 9 13 1017.0 1016.7 0.0
08/05:30pm 27.9 27.5 18.0 55 6.3 E 17 22 9 12 1016.9 1016.6 0.0
08/05:00pm 28.3 28.2 17.8 53 6.7 E 15 22 8 12 1017.0 1016.7 0.0
08/04:30pm 29.1 29.7 17.6 50 7.3 E 11 22 6 12 1017.0 1016.7 0.0
08/04:00pm 29.4 31.1 17.2 47 7.7 SE 4 6 2 3 1017.1 1016.8 0.0
08/03:30pm 29.8 31.4 17.9 48 7.6 WSW 6 13 3 7 1017.2 1016.9 0.0
08/03:00pm 28.9 30.1 17.4 49 7.3 N 7 11 4 6 1017.5 1017.1 0.0
08/02:30pm 29.1 31.0 17.6 50 7.3 SSW 4 11 2 6 1017.9 1017.5 0.0
08/02:00pm 28.4 29.1 17.9 53 6.7 NE 11 22 6 12 1018.0 1017.6 0.0
08/01:30pm 27.7 28.9 16.9 51 6.8 SSW 6 9 3 5 1018.3 1017.9 0.0
08/01:00pm 27.8 29.0 17.3 52 6.6 N 7 11 4 6 1018.6 1018.2 0.0
08/12:30pm 27.3 29.0 17.2 54 6.3 NNE 4 9 2 5 1018.9 1018.5 0.0
08/12:00pm 26.5 27.9 16.4 53 6.2 ENE 4 11 2 6 1019.2 1018.8 0.0
08/11:30am 26.0 27.2 16.8 57 5.7 SE 6 11 3 6 1019.5 1019.1 0.0
08/11:00am 25.3 26.2 16.7 59 5.3 WSW 7 11 4 6 1019.6 1019.2 0.0
08/10:30am 24.5 25.4 16.5 61 4.9 S 7 13 4 7 1019.8 1019.4 0.0
08/10:00am 23.8 25.3 17.5 68 3.9 S 6 9 3 5 1019.7 1019.3 0.0
08/09:30am 22.5 24.1 18.3 77 2.6 SW 7 13 4 7 1019.7 1019.3 0.0
08/09:00am 21.3 23.0 18.5 84 1.8 SW 7 11 4 6 1019.6 1019.2 0.0
08/08:30am 20.1 21.9 18.8 92 0.8 SW 7 9 4 5 1019.6 1019.2 0.0
08/08:00am 18.5 20.1 18.3 99 0.1 SW 7 9 4 5 1019.4 1019.0 0.0
08/07:30am 17.1 18.8 17.1 100 0.0 SW 4 4 2 2 1019.2 1018.8 0.0
08/07:00am 16.1 17.8 16.1 100 0.0 SW 2 2 1 1 1019.0 1018.6 0.0
08/06:30am 15.5 16.2 15.5 100 0.0 SW 6 6 3 3 1018.7 1018.3 0.0
08/06:00am 15.8 16.4 15.8 100 0.0 SW 7 9 4 5 1018.5 1018.1 0.0
08/05:30am 16.2 16.2 16.2 100 0.0 SW 11 15 6 8 1018.1 1017.7 0.0
08/05:00am 15.8 16.0 15.8 100 0.0 SW 9 9 5 5 1018.1 1017.7 0.0
08/04:30am 15.6 16.3 15.6 100 0.0 SW 6 7 3 4 1018.1 1017.7 0.0
08/04:00am 16.1 17.0 16.1 100 0.0 SW 6 6 3 3 1018.1 1017.7 0.0
08/03:30am 16.3 17.7 16.3 100 0.0 SW 4 6 2 3 1018.2 1017.8 0.0
08/03:00am 16.7 18.2 16.7 100 0.0 SW 4 4 2 2 1018.4 1018.0 0.0
08/02:30am 16.9 18.1 16.9 100 0.0 SW 6 6 3 3 1018.4 1018.0 0.0
08/02:00am 17.1 18.3 16.9 99 0.1 SW 6 6 3 3 1018.6 1018.2 0.0
08/01:30am 17.2 18.2 16.9 98 0.2 SW 7 7 4 4 1018.7 1018.3 0.0
08/01:00am 17.6 18.9 17.1 97 0.3 SW 6 7 3 4 1019.0 1018.6 0.0
08/12:30am 18.0 19.4 17.4 96 0.4 SW 6 6 3 3 1019.1 1018.7 0.0
08/12:00am 18.8 20.3 17.6 93 0.7 SW 6 7 3 4 1019.0 1018.6 0.0
 
Date/Time
EDT
Temp
°C
App
Temp
°C
Dew
Point
Rel
Hum
%
Delta-T
°C
Wind Press
QNH
hPa
Press
MSL
hPa
Rain
since 9 am
mm
Dir
 
Spd
km/h
Gust
km/h
Spd
kts
Gust
kts
07/11:30pm 19.1 20.7 17.9 93 0.7 SE 6 6 3 3 1019.1 1018.7 0.0
07/11:00pm 19.2 21.1 17.7 91 0.9 SE 4 4 2 2 1019.1 1018.7 0.0
07/10:30pm 19.3 20.9 17.8 91 0.9 SE 6 6 3 3 1019.0 1018.6 0.0
07/10:00pm 19.7 21.8 17.3 86 1.5 SE 2 4 1 2 1018.8 1018.4 0.0
07/09:30pm 20.7 22.4 17.1 80 2.2 SE 4 6 2 3 1018.5 1018.1 0.0
07/09:00pm 21.0 22.3 17.0 78 2.4 SE 6 6 3 3 1018.2 1017.8 0.0
07/08:30pm 21.6 22.9 17.0 75 2.8 ESE 6 7 3 4 1017.8 1017.4 0.0
07/08:00pm 22.1 23.1 16.8 72 3.2 ESE 7 11 4 6 1017.6 1017.2 0.0
07/07:30pm 23.3 23.5 16.8 67 4.0 ESE 11 17 6 9 1017.1 1016.8 0.0
07/07:00pm 24.3 24.1 16.8 63 4.6 ESE 13 19 7 10 1016.7 1016.4 0.0
07/06:30pm 25.0 24.9 17.0 61 5.0 ESE 13 20 7 11 1016.3 1016.0 0.0
07/06:00pm 25.8 26.2 17.2 59 5.4 E 11 17 6 9 1016.2 1015.9 0.0
07/05:30pm 25.8 26.0 17.7 61 5.1 E 13 20 7 11 1015.9 1015.6 0.0
07/05:00pm 26.2 26.1 17.8 60 5.3 ESE 15 24 8 13 1015.8 1015.5 0.0
07/04:30pm 26.7 27.0 17.8 58 5.6 ESE 13 20 7 11 1015.8 1015.5 0.0
07/04:00pm 26.9 27.1 17.7 57 5.8 ESE 13 22 7 12 1015.8 1015.5 0.0
07/03:30pm 27.7 28.7 18.7 58 5.8 E 11 19 6 10 1015.9 1015.6 0.0
07/03:00pm 25.6 26.7 18.0 63 4.8 E 9 15 5 8 1016.2 1015.9 0.0
07/02:30pm 26.5 26.7 17.6 58 5.6 ESE 13 19 7 10 1016.4 1016.1 0.0
07/02:00pm 25.6 26.6 17.8 62 4.9 E 9 17 5 9 1016.6 1016.3 0.0
07/01:30pm 26.7 28.2 18.0 59 5.5 E 7 11 4 6 1016.8 1016.5 0.0
07/01:00pm 25.6 26.7 17.0 59 5.3 S 7 13 4 7 1017.1 1016.8 0.0
07/12:30pm 25.3 26.9 17.0 60 5.2 E 4 9 2 5 1017.6 1017.2 0.0
07/12:00pm 24.6 26.0 17.3 64 4.5 SE 6 9 3 5 1017.9 1017.5 0.0

Other Formats:

Comma delimited format used in spreadsheet applications
http://www.bom.gov.au/fwo/IDN60801/IDN60801.94752.axf

JavaScript Object Notation format (JSON) in row-major order
http://www.bom.gov.au/fwo/IDN60801/IDN60801.94752.json